Terminal Aerodrome Forecast
Issued by NWS

Home | Current Version | Previous Version | Graphics & Text | Print | Product List | Glossary On
Versions: 1 2 3 4 5 6 7 8 9 10 11 12 13 14
000
FTUS43 KBIS 191123
TAFJMS
TAF
KJMS 191123Z 1912/2012 22004KT P6SM SKC
     FM191500 19008KT P6SM SKC
     FM191900 18013KT P6SM SKC
     FM200300 24008KT P6SM FEW090 SCT250
     FM200600 32007KT P6SM FEW100 SCT200=

USA.gov is the U.S. government's official web portal to all federal, state and local government web resources and services.